Time;durP1;ratioP1;P1;durP2;ratioP2;P2;SDS_P1;SDS_P2;PMS_P1;PMS_P2;Temp;Humidity;BMP_temperature;BMP_pressure;BME280_temperature;BME280_humidity;BME280_pressure;Samples;Min_cycle;Max_cycle;Signal;HPM_P1;HPM_P2
2023/03/04 00:01:15;;;;;;;;;;;5.80;99.90;;;;;;5084887;28;20318;-72
2023/03/04 00:03:41;;;;;;;;;;;5.90;99.90;;;;;;5017146;28;208121;-72
2023/03/04 00:06:07;;;;;;;;;;;5.90;99.90;;;;;;5089856;28;19936;-73
2023/03/04 00:08:33;;;;;;;;;;;5.90;99.90;;;;;;5024557;28;207759;-72
2023/03/04 00:10:59;;;;;;;;;;;5.90;99.90;;;;;;5053123;28;19924;-72
2023/03/04 00:13:25;;;;;;;;;;;5.90;99.90;;;;;;5064665;28;19950;-73
2023/03/04 00:15:51;;;;;;;;;;;5.90;99.90;;;;;;4989432;28;205089;-72
2023/03/04 00:18:17;;;;;;;;;;;5.90;99.90;;;;;;5064372;28;19948;-72
2023/03/04 00:20:43;;;;;;;;;;;5.90;99.90;;;;;;4995123;28;206153;-73
2023/03/04 00:23:09;;;;;;;;;;;5.90;99.90;;;;;;5080771;28;20393;-72
2023/03/04 00:25:35;;;;;;;;;;;5.90;99.90;;;;;;5019826;28;216768;-73
2023/03/04 00:28:01;;;;;;;;;;;5.90;99.90;;;;;;5064731;28;19979;-73
2023/03/04 00:30:27;;;;;;;;;;;5.80;99.90;;;;;;5007830;28;210063;-73
2023/03/04 00:32:52;;;;;;;;;;;5.80;99.90;;;;;;5042913;28;19924;-73
2023/03/04 00:35:18;;;;;;;;;;;5.80;99.90;;;;;;4975428;28;212043;-73
2023/03/04 00:37:44;;;;;;;;;;;5.80;99.90;;;;;;5060047;28;19935;-73
2023/03/04 00:40:10;;;;;;;;;;;5.80;99.90;;;;;;4999872;28;209487;-73
2023/03/04 00:42:36;;;;;;;;;;;5.80;99.90;;;;;;5043304;28;19928;-72
2023/03/04 00:45:02;;;;;;;;;;;5.80;99.90;;;;;;4999129;28;206396;-72
2023/03/04 00:47:28;;;;;;;;;;;5.80;99.90;;;;;;5057802;28;19992;-72
2023/03/04 00:49:54;;;;;;;;;;;5.80;99.90;;;;;;5020576;28;206236;-72
2023/03/04 00:52:20;;;;;;;;;;;5.80;99.90;;;;;;5057429;28;20485;-72
2023/03/04 00:54:46;;;;;;;;;;;5.80;99.90;;;;;;5004225;28;211173;-72
2023/03/04 00:57:12;;;;;;;;;;;5.80;99.90;;;;;;5062373;28;20083;-72
2023/03/04 00:59:39;;;;;;;;;;;5.80;99.90;;;;;;5024710;28;212166;-72
2023/03/04 01:02:05;;;;;;;;;;;5.80;99.90;;;;;;5064296;28;19920;-71
2023/03/04 01:04:31;;;;;;;;;;;5.80;99.90;;;;;;5004608;28;249632;-72
2023/03/04 01:06:57;;;;;;;;;;;5.80;99.90;;;;;;5063209;28;19920;-72
2023/03/04 01:09:25;;;;;;;;;;;5.80;99.90;;;;;;5005602;28;214351;-72
2023/03/04 01:11:51;;;;;;;;;;;5.80;99.90;;;;;;5058308;28;20063;-72
2023/03/04 01:14:17;;;;;;;;;;;5.80;99.90;;;;;;5007184;28;215005;-72
2023/03/04 01:16:43;;;;;;;;;;;5.80;99.90;;;;;;5064606;28;19935;-71
2023/03/04 01:19:10;;;;;;;;;;;5.80;99.90;;;;;;5009599;28;207730;-72
2023/03/04 01:21:36;;;;;;;;;;;5.80;99.90;;;;;;5061831;28;19931;-72
2023/03/04 01:24:02;;;;;;;;;;;5.80;99.90;;;;;;5013694;28;207673;-72
2023/03/04 01:26:28;;;;;;;;;;;5.80;99.90;;;;;;5056306;28;19947;-72
2023/03/04 01:28:54;;;;;;;;;;;5.80;99.90;;;;;;5001336;28;229791;-73
2023/03/04 01:31:20;;;;;;;;;;;5.80;99.90;;;;;;5056373;28;20333;-73
2023/03/04 01:33:46;;;;;;;;;;;5.90;99.90;;;;;;5005192;28;214339;-73
2023/03/04 01:36:12;;;;;;;;;;;5.80;99.90;;;;;;5054539;28;20347;-73
2023/03/04 01:38:37;;;;;;;;;;;5.80;99.90;;;;;;4998384;28;206478;-70
2023/03/04 01:41:04;;;;;;;;;;;5.80;99.90;;;;;;5054026;28;19929;-71
2023/03/04 01:43:30;;;;;;;;;;;5.80;99.90;;;;;;5032955;28;207892;-72
2023/03/04 01:45:56;;;;;;;;;;;5.80;99.90;;;;;;5040458;28;208493;-73
2023/03/04 01:48:27;;;;;;;;;;;5.80;99.90;;;;;;5062641;28;19935;-72
2023/03/04 01:50:53;;;;;;;;;;;5.80;99.90;;;;;;4974735;28;206175;-73
2023/03/04 01:53:21;;;;;;;;;;;5.80;99.90;;;;;;5058762;28;19960;-73
2023/03/04 01:55:47;;;;;;;;;;;5.80;99.90;;;;;;5006686;28;205763;-73
2023/03/04 01:58:13;;;;;;;;;;;5.80;99.90;;;;;;5075228;28;19932;-72
2023/03/04 02:00:39;;;;;;;;;;;5.80;99.90;;;;;;4994748;28;226905;-73
2023/03/04 02:03:07;;;;;;;;;;;5.80;99.90;;;;;;5062643;28;19929;-73
2023/03/04 02:05:34;;;;;;;;;;;5.70;99.90;;;;;;4947615;28;209486;-73
2023/03/04 02:08:02;;;;;;;;;;;5.70;99.90;;;;;;5042795;28;19921;-73
2023/03/04 02:10:28;;;;;;;;;;;5.70;99.90;;;;;;5020398;28;213676;-73
2023/03/04 02:12:54;;;;;;;;;;;5.70;99.90;;;;;;5084067;28;19932;-73
2023/03/04 02:15:20;;;;;;;;;;;5.70;99.90;;;;;;4993857;28;130939;-72
2023/03/04 02:17:47;;;;;;;;;;;5.70;99.90;;;;;;5039915;28;19927;-72
2023/03/04 02:20:31;;;;;;;;;;;5.70;99.90;;;;;;5017957;28;209005;-72
2023/03/04 02:22:57;;;;;;;;;;;5.70;99.90;;;;;;5058622;28;19920;-72
2023/03/04 02:25:26;;;;;;;;;;;5.60;99.90;;;;;;4992086;28;207164;-72
2023/03/04 02:27:52;;;;;;;;;;;5.70;99.90;;;;;;5048882;28;19924;-73
2023/03/04 02:30:19;;;;;;;;;;;5.60;99.90;;;;;;5013858;28;206025;-72
2023/03/04 02:32:45;;;;;;;;;;;5.70;99.90;;;;;;5056612;28;19924;-72
2023/03/04 02:35:17;;;;;;;;;;;5.60;99.90;;;;;;4988011;28;214296;-73
2023/03/04 02:37:43;;;;;;;;;;;5.60;99.90;;;;;;5053865;28;19924;-73
2023/03/04 02:40:15;;;;;;;;;;;5.60;99.90;;;;;;4991048;28;207313;-73
2023/03/04 02:42:42;;;;;;;;;;;5.50;99.90;;;;;;5031725;28;19920;-73
2023/03/04 02:45:28;;;;;;;;;;;5.60;99.90;;;;;;4995077;28;213006;-73
2023/03/04 02:47:53;;;;;;;;;;;5.50;99.90;;;;;;5058134;28;19928;-73
2023/03/04 02:50:19;;;;;;;;;;;5.60;99.90;;;;;;5011118;28;207537;-73
2023/03/04 02:52:45;;;;;;;;;;;5.60;99.90;;;;;;5054778;28;20043;-73
2023/03/04 02:55:11;;;;;;;;;;;5.60;99.90;;;;;;5006779;28;225517;-73
2023/03/04 02:57:37;;;;;;;;;;;5.60;99.90;;;;;;5041233;28;20291;-73
2023/03/04 03:00:03;;;;;;;;;;;5.60;99.90;;;;;;5000105;28;209268;-73
2023/03/04 03:02:29;;;;;;;;;;;5.60;99.90;;;;;;5057235;28;19936;-73
2023/03/04 03:04:55;;;;;;;;;;;5.60;99.90;;;;;;4971412;28;241247;-73
2023/03/04 03:07:21;;;;;;;;;;;5.60;99.90;;;;;;5054817;28;20304;-72
2023/03/04 03:09:47;;;;;;;;;;;5.60;99.90;;;;;;5001713;28;222515;-73
2023/03/04 03:12:13;;;;;;;;;;;5.60;99.90;;;;;;5056631;28;19950;-72
2023/03/04 03:14:39;;;;;;;;;;;5.60;99.90;;;;;;5020395;28;206874;-73
2023/03/04 03:17:04;;;;;;;;;;;5.60;99.90;;;;;;5047060;28;19971;-73
2023/03/04 03:19:30;;;;;;;;;;;5.60;99.90;;;;;;5012695;28;206481;-73
2023/03/04 03:21:56;;;;;;;;;;;5.60;99.90;;;;;;5055990;28;20325;-73
2023/03/04 03:24:22;;;;;;;;;;;5.60;99.90;;;;;;5010974;28;207688;-73
2023/03/04 03:26:48;;;;;;;;;;;5.60;99.90;;;;;;5070482;28;19931;-73
2023/03/04 03:29:14;;;;;;;;;;;5.60;99.90;;;;;;5002911;28;215590;-73
2023/03/04 03:31:40;;;;;;;;;;;5.60;99.90;;;;;;5052224;28;19924;-73
2023/03/04 03:34:06;;;;;;;;;;;5.60;99.90;;;;;;5003749;28;209705;-74
2023/03/04 03:36:32;;;;;;;;;;;5.60;99.90;;;;;;5046730;28;19939;-73
2023/03/04 03:38:58;;;;;;;;;;;5.60;99.90;;;;;;4999767;28;209237;-74
2023/03/04 03:41:24;;;;;;;;;;;5.60;99.90;;;;;;5045146;28;20375;-74
2023/03/04 03:43:50;;;;;;;;;;;5.60;99.90;;;;;;5008274;28;242777;-73
2023/03/04 03:46:16;;;;;;;;;;;5.60;99.90;;;;;;5048463;28;19923;-73
2023/03/04 03:48:42;;;;;;;;;;;5.60;99.90;;;;;;5005386;28;208050;-73
2023/03/04 03:51:08;;;;;;;;;;;5.60;99.90;;;;;;5069609;28;20369;-73
2023/03/04 03:53:34;;;;;;;;;;;5.60;99.90;;;;;;5016528;28;210763;-72
2023/03/04 03:56:00;;;;;;;;;;;5.60;99.90;;;;;;5044034;28;19929;-73
2023/03/04 03:58:25;;;;;;;;;;;5.60;99.90;;;;;;5061989;28;19924;-73
2023/03/04 04:00:51;;;;;;;;;;;5.60;99.90;;;;;;5000493;28;274159;-73
2023/03/04 04:03:17;;;;;;;;;;;5.60;99.90;;;;;;5069039;28;20436;-74
2023/03/04 04:05:43;;;;;;;;;;;5.60;99.90;;;;;;4975256;28;207861;-73
2023/03/04 04:08:14;;;;;;;;;;;5.60;99.90;;;;;;5079822;28;19925;-73
2023/03/04 04:10:40;;;;;;;;;;;5.60;99.90;;;;;;5006526;28;207417;-72
2023/03/04 04:13:06;;;;;;;;;;;5.60;99.90;;;;;;5060931;28;20296;-72
2023/03/04 04:15:32;;;;;;;;;;;5.60;99.90;;;;;;4993867;28;217134;-72
2023/03/04 04:17:57;;;;;;;;;;;5.60;99.90;;;;;;5059684;28;19928;-73
2023/03/04 04:20:23;;;;;;;;;;;5.60;99.90;;;;;;4996218;28;205902;-73
2023/03/04 04:22:49;;;;;;;;;;;5.60;99.90;;;;;;5061582;28;19921;-72
2023/03/04 04:25:16;;;;;;;;;;;5.60;99.90;;;;;;5011051;28;212395;-72
2023/03/04 04:27:42;;;;;;;;;;;5.60;99.90;;;;;;5059605;28;19921;-72
2023/03/04 04:30:08;;;;;;;;;;;5.60;99.90;;;;;;4999482;28;194042;-72
2023/03/04 04:32:34;;;;;;;;;;;5.60;99.90;;;;;;5043975;28;19925;-73
2023/03/04 04:35:00;;;;;;;;;;;5.50;99.90;;;;;;5000436;28;211802;-72
2023/03/04 04:37:26;;;;;;;;;;;5.60;99.90;;;;;;5060897;28;20348;-73
2023/03/04 04:39:54;;;;;;;;;;;5.50;99.90;;;;;;5001972;28;210565;-72
2023/03/04 04:42:20;;;;;;;;;;;5.50;99.90;;;;;;5043332;28;19924;-73
2023/03/04 04:44:46;;;;;;;;;;;5.50;99.90;;;;;;4995723;28;225730;-73
2023/03/04 04:47:12;;;;;;;;;;;5.50;99.90;;;;;;5045576;28;19930;-73
2023/03/04 04:49:38;;;;;;;;;;;5.50;99.90;;;;;;4999583;28;229528;-72
2023/03/04 04:52:04;;;;;;;;;;;5.50;99.90;;;;;;5030984;28;20320;-72
2023/03/04 04:54:30;;;;;;;;;;;5.50;99.90;;;;;;5005457;28;206429;-73
2023/03/04 04:56:56;;;;;;;;;;;5.50;99.90;;;;;;5055984;28;20645;-72
2023/03/04 04:59:22;;;;;;;;;;;5.50;99.90;;;;;;5006991;28;214319;-72
2023/03/04 05:01:48;;;;;;;;;;;5.40;99.90;;;;;;5067791;28;19960;-72
2023/03/04 05:04:14;;;;;;;;;;;5.50;99.90;;;;;;4989598;28;227762;-72
2023/03/04 05:06:40;;;;;;;;;;;5.50;99.90;;;;;;5067444;28;19934;-71
2023/03/04 05:09:06;;;;;;;;;;;5.50;99.90;;;;;;5025492;28;208550;-72
2023/03/04 05:11:32;;;;;;;;;;;5.40;99.90;;;;;;5080250;28;19920;-72
2023/03/04 05:13:58;;;;;;;;;;;5.40;99.90;;;;;;4990598;28;223715;-72
2023/03/04 05:16:24;;;;;;;;;;;5.40;99.90;;;;;;5066247;28;20403;-72
2023/03/04 05:18:50;;;;;;;;;;;5.40;99.90;;;;;;5041645;28;213094;-72
2023/03/04 05:21:16;;;;;;;;;;;5.40;99.90;;;;;;5085446;28;19924;-72
2023/03/04 05:23:42;;;;;;;;;;;5.40;99.90;;;;;;5015796;28;206287;-72
2023/03/04 05:26:10;;;;;;;;;;;5.50;99.90;;;;;;5050029;28;19921;-72
2023/03/04 05:28:36;;;;;;;;;;;5.40;99.90;;;;;;5006636;28;207897;-72
2023/03/04 05:31:02;;;;;;;;;;;5.50;99.90;;;;;;5063805;28;19931;-72
2023/03/04 05:33:28;;;;;;;;;;;5.40;99.90;;;;;;5026536;28;213554;-73
2023/03/04 05:35:55;;;;;;;;;;;5.50;99.90;;;;;;5017673;28;208577;-72
2023/03/04 05:38:21;;;;;;;;;;;5.40;99.90;;;;;;5058803;28;19929;-72
2023/03/04 05:40:47;;;;;;;;;;;5.40;99.90;;;;;;5014825;28;208118;-72
2023/03/04 05:43:14;;;;;;;;;;;5.40;99.90;;;;;;5054909;28;19920;-72
2023/03/04 05:45:40;;;;;;;;;;;5.40;99.90;;;;;;4987464;28;234760;-72
2023/03/04 05:48:06;;;;;;;;;;;5.40;99.90;;;;;;5079220;28;20383;-72
2023/03/04 05:50:33;;;;;;;;;;;5.40;99.90;;;;;;4999799;28;224425;-73
2023/03/04 05:52:59;;;;;;;;;;;5.40;99.90;;;;;;5057554;28;20380;-72
2023/03/04 05:55:26;;;;;;;;;;;5.40;99.90;;;;;;4998854;28;209230;-73
2023/03/04 05:57:52;;;;;;;;;;;5.40;99.90;;;;;;5043169;28;19935;-73
2023/03/04 06:00:18;;;;;;;;;;;5.50;99.90;;;;;;4992332;28;211874;-73
2023/03/04 06:02:44;;;;;;;;;;;5.30;99.90;;;;;;5022856;28;22176;-73
2023/03/04 06:05:11;;;;;;;;;;;5.40;99.90;;;;;;4991963;28;207826;-74
2023/03/04 06:07:37;;;;;;;;;;;5.40;99.90;;;;;;5058560;28;19951;-73
2023/03/04 06:10:04;;;;;;;;;;;5.40;99.90;;;;;;5015673;28;207066;-74
2023/03/04 06:12:30;;;;;;;;;;;5.40;99.90;;;;;;5077950;28;19924;-74
2023/03/04 06:14:55;;;;;;;;;;;5.40;99.90;;;;;;5014122;28;209356;-74
2023/03/04 06:17:22;;;;;;;;;;;5.50;99.90;;;;;;5054405;28;19934;-73
2023/03/04 06:19:48;;;;;;;;;;;5.40;99.90;;;;;;5025677;28;206324;-74
2023/03/04 06:22:14;;;;;;;;;;;5.40;99.90;;;;;;5064979;28;20400;-73
2023/03/04 06:24:43;;;;;;;;;;;5.40;99.90;;;;;;5003770;28;259002;-74
2023/03/04 06:27:09;;;;;;;;;;;5.40;99.90;;;;;;5061764;28;19931;-74
2023/03/04 06:29:35;;;;;;;;;;;5.50;99.90;;;;;;5001704;28;222091;-74
2023/03/04 06:32:01;;;;;;;;;;;5.50;99.90;;;;;;5076887;28;19920;-75
2023/03/04 06:34:28;;;;;;;;;;;5.50;99.90;;;;;;5017841;28;223347;-75
2023/03/04 06:36:54;;;;;;;;;;;5.50;99.90;;;;;;5058635;28;19951;-74
2023/03/04 06:39:20;;;;;;;;;;;5.50;99.90;;;;;;5023067;28;221829;-74
2023/03/04 06:41:46;;;;;;;;;;;5.40;99.90;;;;;;5061521;28;20407;-73
2023/03/04 06:44:12;;;;;;;;;;;5.40;99.90;;;;;;5007952;28;239639;-74
2023/03/04 06:46:38;;;;;;;;;;;5.40;99.90;;;;;;5059434;28;19931;-74
2023/03/04 06:49:04;;;;;;;;;;;5.50;99.90;;;;;;5011309;28;263075;-75
2023/03/04 06:51:30;;;;;;;;;;;5.50;99.90;;;;;;5043765;28;19924;-73
2023/03/04 06:53:57;;;;;;;;;;;5.50;99.90;;;;;;5018585;28;244705;-75
2023/03/04 06:56:23;;;;;;;;;;;5.50;99.90;;;;;;5070325;28;19925;-73
2023/03/04 06:58:49;;;;;;;;;;;5.60;99.90;;;;;;5018029;28;219469;-73
2023/03/04 07:01:15;;;;;;;;;;;5.60;99.90;;;;;;5084999;28;19938;-73
2023/03/04 07:03:41;;;;;;;;;;;5.70;99.90;;;;;;5013500;28;206816;-74
2023/03/04 07:06:08;;;;;;;;;;;5.70;99.90;;;;;;5044570;28;20279;-73
2023/03/04 07:08:34;;;;;;;;;;;5.60;99.90;;;;;;5024169;28;211943;-73
2023/03/04 07:11:00;;;;;;;;;;;5.70;99.90;;;;;;5040964;28;20322;-73
2023/03/04 07:13:26;;;;;;;;;;;5.60;99.90;;;;;;5066777;28;19924;-73
2023/03/04 07:15:52;;;;;;;;;;;5.70;99.90;;;;;;4971800;28;86368;-75
2023/03/04 07:18:18;;;;;;;;;;;5.70;99.90;;;;;;5078811;28;19924;-74
2023/03/04 07:20:44;;;;;;;;;;;5.80;99.90;;;;;;5020853;28;211300;-74
2023/03/04 07:23:10;;;;;;;;;;;5.80;99.90;;;;;;5075853;28;20378;-74
2023/03/04 07:25:36;;;;;;;;;;;5.80;99.90;;;;;;4998471;28;204275;-75
2023/03/04 07:28:02;;;;;;;;;;;5.80;99.90;;;;;;5068376;28;19936;-75
2023/03/04 07:30:28;;;;;;;;;;;5.90;99.90;;;;;;5005754;28;209372;-75
2023/03/04 07:32:57;;;;;;;;;;;6.00;99.90;;;;;;5072099;28;20378;-74
2023/03/04 07:35:23;;;;;;;;;;;6.00;99.90;;;;;;5029435;28;237342;-74
2023/03/04 07:37:49;;;;;;;;;;;6.00;99.90;;;;;;5067703;28;19928;-74
2023/03/04 07:40:15;;;;;;;;;;;6.00;99.90;;;;;;4996717;28;240043;-75
2023/03/04 07:42:43;;;;;;;;;;;6.00;99.90;;;;;;5065897;28;19928;-76
2023/03/04 07:45:09;;;;;;;;;;;5.90;99.90;;;;;;4999356;28;201491;-76
2023/03/04 07:47:35;;;;;;;;;;;6.00;99.90;;;;;;5064429;28;20297;-75
2023/03/04 07:50:09;;;;;;;;;;;6.00;99.90;;;;;;5007843;28;179261;-74
2023/03/04 07:52:38;;;;;;;;;;;6.00;99.90;;;;;;5071713;28;19925;-76
2023/03/04 07:55:04;;;;;;;;;;;6.00;99.90;;;;;;4985335;28;219036;-76
2023/03/04 07:57:30;;;;;;;;;;;6.00;99.90;;;;;;5065604;28;19929;-75
2023/03/04 07:59:56;;;;;;;;;;;6.10;99.90;;;;;;4990158;28;279938;-74
2023/03/04 08:02:22;;;;;;;;;;;6.10;99.90;;;;;;5070152;28;19928;-75
2023/03/04 08:04:48;;;;;;;;;;;6.10;99.90;;;;;;5001775;28;227232;-73
2023/03/04 08:07:14;;;;;;;;;;;6.30;99.90;;;;;;5065126;28;19966;-75
2023/03/04 08:09:40;;;;;;;;;;;6.30;99.90;;;;;;5014572;28;247800;-75
2023/03/04 08:12:07;;;;;;;;;;;6.40;99.90;;;;;;5058935;28;20373;-74
2023/03/04 08:14:33;;;;;;;;;;;6.50;99.90;;;;;;5007962;28;206843;-74
2023/03/04 08:17:00;;;;;;;;;;;6.60;99.90;;;;;;5067113;28;19932;-75
2023/03/04 08:19:26;;;;;;;;;;;6.70;99.90;;;;;;5009332;28;225292;-75
2023/03/04 08:21:52;;;;;;;;;;;6.70;99.90;;;;;;5047435;28;20541;-74
2023/03/04 08:24:18;;;;;;;;;;;6.70;99.90;;;;;;4998489;28;211914;-74
2023/03/04 08:26:45;;;;;;;;;;;6.80;99.90;;;;;;5056888;28;19951;-74
2023/03/04 08:29:13;;;;;;;;;;;6.80;99.90;;;;;;5002436;28;157558;-75
2023/03/04 08:31:39;;;;;;;;;;;6.80;99.90;;;;;;5076916;28;19924;-74
2023/03/04 08:34:07;;;;;;;;;;;6.70;99.90;;;;;;5019851;28;215373;-74
2023/03/04 08:36:33;;;;;;;;;;;6.70;99.90;;;;;;5064970;28;19924;-75
2023/03/04 08:38:59;;;;;;;;;;;6.70;99.90;;;;;;5025152;28;28058;-74
2023/03/04 08:41:26;;;;;;;;;;;6.80;99.90;;;;;;5059819;28;19937;-75
2023/03/04 08:43:52;;;;;;;;;;;6.80;99.90;;;;;;5001696;28;283051;-75
2023/03/04 08:46:18;;;;;;;;;;;6.80;99.90;;;;;;5041446;28;19924;-74
2023/03/04 08:48:44;;;;;;;;;;;6.80;99.90;;;;;;5001081;28;207763;-74
2023/03/04 08:51:11;;;;;;;;;;;6.80;99.90;;;;;;5043033;28;19929;-75
2023/03/04 08:53:38;;;;;;;;;;;6.90;99.90;;;;;;5017307;28;227895;-74
2023/03/04 08:56:05;;;;;;;;;;;7.00;99.90;;;;;;5073230;28;19925;-74
2023/03/04 08:58:31;;;;;;;;;;;6.90;99.90;;;;;;5038929;28;259644;-74
2023/03/04 09:00:57;;;;;;;;;;;6.90;99.90;;;;;;5004766;28;24614;-74
2023/03/04 09:03:23;;;;;;;;;;;6.80;99.90;;;;;;5060070;28;19925;-73
2023/03/04 09:05:49;;;;;;;;;;;6.90;99.90;;;;;;4991543;28;198016;-74
2023/03/04 09:08:15;;;;;;;;;;;6.90;99.90;;;;;;5060906;28;20468;-75
2023/03/04 09:10:42;;;;;;;;;;;7.00;99.90;;;;;;5006968;28;264710;-72
2023/03/04 09:13:10;;;;;;;;;;;6.90;99.90;;;;;;5082222;28;19924;-75
2023/03/04 09:15:37;;;;;;;;;;;7.00;99.90;;;;;;4982381;28;219130;-74
2023/03/04 09:18:03;;;;;;;;;;;7.00;99.90;;;;;;5062341;28;19920;-73
2023/03/04 09:20:30;;;;;;;;;;;7.00;99.90;;;;;;5005228;28;203759;-76
2023/03/04 09:22:56;;;;;;;;;;;7.00;99.90;;;;;;5061103;28;19927;-75
2023/03/04 09:25:22;;;;;;;;;;;7.00;99.90;;;;;;4999488;28;209759;-73
2023/03/04 09:27:48;;;;;;;;;;;7.00;99.90;;;;;;5062671;28;20333;-74
2023/03/04 09:30:14;;;;;;;;;;;7.00;99.90;;;;;;5002405;28;216150;-73
2023/03/04 09:32:40;;;;;;;;;;;7.00;99.90;;;;;;5082313;28;21337;-74
2023/03/04 09:35:06;;;;;;;;;;;7.10;99.90;;;;;;5011847;28;216396;-73
2023/03/04 09:37:32;;;;;;;;;;;7.10;99.90;;;;;;5060130;28;19928;-74
2023/03/04 09:39:58;;;;;;;;;;;7.10;99.90;;;;;;4997093;28;227426;-74
2023/03/04 09:42:27;;;;;;;;;;;7.10;99.90;;;;;;5061294;28;19927;-74
2023/03/04 09:44:53;;;;;;;;;;;7.10;99.90;;;;;;5011382;28;233989;-73
2023/03/04 09:47:20;;;;;;;;;;;7.10;99.90;;;;;;5069669;28;20212;-72
2023/03/04 09:49:57;;;;;;;;;;;7.20;99.90;;;;;;4995638;28;227213;-72
2023/03/04 09:52:23;;;;;;;;;;;7.20;99.90;;;;;;5060540;28;19924;-73
2023/03/04 09:55:07;;;;;;;;;;;7.30;99.90;;;;;;5008809;28;144276;-74
2023/03/04 09:57:43;;;;;;;;;;;7.30;99.90;;;;;;5060464;28;19926;-74
2023/03/04 10:00:18;;;;;;;;;;;7.30;99.90;;;;;;4990112;28;227953;-72
2023/03/04 10:03:05;;;;;;;;;;;7.40;99.90;;;;;;5061406;28;19921;-71
2023/03/04 10:05:33;;;;;;;;;;;7.30;99.90;;;;;;4987464;28;200074;-72
2023/03/04 10:08:14;;;;;;;;;;;7.30;99.90;;;;;;5061337;28;19931;-71
2023/03/04 10:10:42;;;;;;;;;;;7.30;99.90;;;;;;5006563;28;241823;-73
2023/03/04 10:13:15;;;;;;;;;;;7.20;99.90;;;;;;5064747;28;19931;-74
2023/03/04 10:15:42;;;;;;;;;;;7.10;99.90;;;;;;4996852;28;88612;-73
2023/03/04 10:18:13;;;;;;;;;;;7.10;99.90;;;;;;5064069;28;19927;-73
2023/03/04 10:20:49;;;;;;;;;;;7.10;99.90;;;;;;4982744;28;205375;-73
2023/03/04 10:23:18;;;;;;;;;;;7.10;99.90;;;;;;5058881;28;19924;-72
2023/03/04 10:25:45;;;;;;;;;;;7.10;99.90;;;;;;4991825;28;211324;-73
2023/03/04 10:28:14;;;;;;;;;;;7.10;99.90;;;;;;5059912;28;20027;-72
2023/03/04 10:30:48;;;;;;;;;;;7.20;99.90;;;;;;4990196;28;215878;-73
2023/03/04 10:33:15;;;;;;;;;;;7.20;99.90;;;;;;5060867;28;19924;-73
2023/03/04 10:35:47;;;;;;;;;;;7.30;99.90;;;;;;4987783;28;206733;-73
2023/03/04 10:38:14;;;;;;;;;;;7.40;99.90;;;;;;5062972;28;19925;-73
2023/03/04 10:40:40;;;;;;;;;;;7.50;99.90;;;;;;4992308;28;258450;-73
2023/03/04 10:43:17;;;;;;;;;;;7.60;99.90;;;;;;5066208;28;19939;-73
2023/03/04 10:45:44;;;;;;;;;;;7.90;99.90;;;;;;5013109;28;216382;-73
2023/03/04 10:48:18;;;;;;;;;;;8.20;99.90;;;;;;5064927;28;19920;-73
2023/03/04 10:50:44;;;;;;;;;;;8.30;99.90;;;;;;5002428;28;207560;-73
2023/03/04 10:53:22;;;;;;;;;;;7.80;99.90;;;;;;5064434;28;19924;-73
2023/03/04 10:55:48;;;;;;;;;;;7.60;99.90;;;;;;4990112;28;209198;-73
2023/03/04 10:58:17;;;;;;;;;;;7.50;99.90;;;;;;5058904;28;19921;-72
2023/03/04 11:00:43;;;;;;;;;;;7.60;99.90;;;;;;4996694;28;214168;-73
2023/03/04 11:03:27;;;;;;;;;;;7.60;99.90;;;;;;5068487;28;19948;-73
2023/03/04 11:06:04;;;;;;;;;;;7.60;99.90;;;;;;4994383;28;216876;-73
2023/03/04 11:08:30;;;;;;;;;;;7.70;99.90;;;;;;5049753;28;598555;-73
2023/03/04 11:10:57;;;;;;;;;;;7.70;99.90;;;;;;5037180;28;116190;-73
2023/03/04 11:13:24;;;;;;;;;;;7.80;99.90;;;;;;5075183;28;19928;-73
2023/03/04 11:15:57;;;;;;;;;;;7.80;99.90;;;;;;4993021;28;176394;-73
2023/03/04 11:18:42;;;;;;;;;;;7.70;99.90;;;;;;5067379;28;19924;-73
2023/03/04 11:21:14;;;;;;;;;;;7.60;99.90;;;;;;4992018;28;212970;-73
2023/03/04 11:23:46;;;;;;;;;;;7.60;99.90;;;;;;5004944;28;213182;-73
2023/03/04 11:26:22;;;;;;;;;;;7.50;99.90;;;;;;5077208;28;19924;-72
2023/03/04 11:29:06;;;;;;;;;;;7.60;99.90;;;;;;5022516;28;206374;-73
2023/03/04 11:31:35;;;;;;;;;;;7.70;99.90;;;;;;5075644;28;19931;-73
2023/03/04 11:34:03;;;;;;;;;;;7.60;99.90;;;;;;5005998;28;205485;-73
2023/03/04 11:36:32;;;;;;;;;;;7.60;99.90;;;;;;5053320;28;19928;-73
2023/03/04 11:38:58;;;;;;;;;;;7.60;99.90;;;;;;5005215;28;251679;-73
2023/03/04 11:41:32;;;;;;;;;;;7.70;99.90;;;;;;5051226;28;19931;-73
2023/03/04 11:43:59;;;;;;;;;;;7.80;99.90;;;;;;5019430;28;215898;-73
2023/03/04 11:46:43;;;;;;;;;;;7.70;99.90;;;;;;5048706;28;19927;-73
2023/03/04 11:49:15;;;;;;;;;;;7.70;99.90;;;;;;5003811;28;210343;-72
2023/03/04 11:52:09;;;;;;;;;;;7.70;99.90;;;;;;5060147;28;19928;-73
2023/03/04 11:54:35;;;;;;;;;;;7.70;99.90;;;;;;4993212;28;207077;-73
2023/03/04 11:57:20;;;;;;;;;;;7.80;99.90;;;;;;5054225;28;20327;-72
2023/03/04 11:59:52;;;;;;;;;;;8.50;99.90;;;;;;5002570;28;209430;-73
2023/03/04 12:02:20;;;;;;;;;;;8.40;99.90;;;;;;5060292;28;19932;-73
2023/03/04 12:04:49;;;;;;;;;;;8.50;99.90;;;;;;4983238;28;224128;-73
2023/03/04 12:07:27;;;;;;;;;;;8.50;99.90;;;;;;5062722;28;19920;-73
2023/03/04 12:10:03;;;;;;;;;;;8.50;99.90;;;;;;4989302;28;219321;-72
2023/03/04 12:12:29;;;;;;;;;;;8.50;99.90;;;;;;5059649;28;19924;-74
2023/03/04 12:15:07;;;;;;;;;;;8.90;99.90;;;;;;5002810;28;227787;-72
2023/03/04 12:17:42;;;;;;;;;;;8.90;99.90;;;;;;5057019;28;19929;-73
2023/03/04 12:20:28;;;;;;;;;;;8.70;99.90;;;;;;5009719;28;227219;-73
2023/03/04 12:23:13;;;;;;;;;;;8.20;99.90;;;;;;5061442;28;19924;-72
2023/03/04 12:25:48;;;;;;;;;;;7.80;99.90;;;;;;4989001;28;231706;-73
2023/03/04 12:28:29;;;;;;;;;;;7.60;99.90;;;;;;5062683;28;19939;-73
2023/03/04 12:31:14;;;;;;;;;;;7.70;99.90;;;;;;5029793;28;20066;-73
2023/03/04 12:33:52;;;;;;;;;;;7.70;99.90;;;;;;5010172;28;209012;-73
2023/03/04 12:36:37;;;;;;;;;;;7.90;99.90;;;;;;5045762;28;19948;-73
2023/03/04 12:39:12;;;;;;;;;;;8.80;99.90;;;;;;5003749;28;227176;-72
2023/03/04 12:41:44;;;;;;;;;;;9.30;99.90;;;;;;5058851;28;19933;-72
2023/03/04 12:44:17;;;;;;;;;;;10.30;99.90;;;;;;5004614;28;251119;-73
2023/03/04 12:46:49;;;;;;;;;;;11.10;99.90;;;;;;5036351;28;19925;-73
2023/03/04 12:49:21;;;;;;;;;;;10.50;99.90;;;;;;4991826;28;210948;-72
2023/03/04 12:52:04;;;;;;;;;;;9.50;99.90;;;;;;5034843;28;20240;-73
2023/03/04 12:54:33;;;;;;;;;;;9.00;99.90;;;;;;4997905;28;224535;-73
2023/03/04 12:57:01;;;;;;;;;;;9.90;99.90;;;;;;5064608;28;20292;-73
2023/03/04 12:59:31;;;;;;;;;;;10.40;99.90;;;;;;5011408;28;188157;-73
2023/03/04 13:01:56;;;;;;;;;;;11.20;99.90;;;;;;5054996;28;19929;-73
2023/03/04 13:04:28;;;;;;;;;;;10.40;99.90;;;;;;4976663;28;234486;-74
2023/03/04 13:07:04;;;;;;;;;;;9.20;99.90;;;;;;5039539;28;19924;-74
2023/03/04 13:09:42;;;;;;;;;;;8.70;99.90;;;;;;5006658;28;211259;-74
2023/03/04 13:12:16;;;;;;;;;;;8.30;99.90;;;;;;5056012;28;19938;-74
2023/03/04 13:15:01;;;;;;;;;;;8.20;99.90;;;;;;5008823;28;240535;-74
2023/03/04 13:17:33;;;;;;;;;;;8.60;99.90;;;;;;5050330;28;19920;-75
2023/03/04 13:20:18;;;;;;;;;;;9.60;99.90;;;;;;5012449;28;209974;-75
2023/03/04 13:22:51;;;;;;;;;;;11.20;99.90;;;;;;5060809;28;19995;-75
2023/03/04 13:25:26;;;;;;;;;;;12.00;99.90;;;;;;4998826;28;208073;-74
2023/03/04 13:28:04;;;;;;;;;;;11.60;99.90;;;;;;5061943;28;20297;-73
2023/03/04 13:30:30;;;;;;;;;;;11.00;99.90;;;;;;4995259;28;207051;-74
2023/03/04 13:32:56;;;;;;;;;;;10.00;99.90;;;;;;5064035;28;19929;-74
2023/03/04 13:35:41;;;;;;;;;;;9.50;99.90;;;;;;5021452;28;208210;-74
2023/03/04 13:38:21;;;;;;;;;;;10.30;99.90;;;;;;5062509;28;19973;-74
2023/03/04 13:41:06;;;;;;;;;;;11.20;99.90;;;;;;5008824;28;206785;-75
2023/03/04 13:43:41;;;;;;;;;;;10.60;99.90;;;;;;5011975;28;227840;-73
2023/03/04 13:46:19;;;;;;;;;;;9.70;99.90;;;;;;5049080;28;20270;-74
2023/03/04 13:48:59;;;;;;;;;;;9.00;99.90;;;;;;5003623;28;261278;-75
2023/03/04 13:51:25;;;;;;;;;;;8.40;99.90;;;;;;5051076;28;19924;-75
2023/03/04 13:53:55;;;;;;;;;;;8.20;99.90;;;;;;5004018;28;207651;-74
2023/03/04 13:56:33;;;;;;;;;;;7.90;99.90;;;;;;5021900;28;19932;-72
2023/03/04 13:59:08;;;;;;;;;;;7.70;99.90;;;;;;5007897;28;197023;-74
2023/03/04 14:01:40;;;;;;;;;;;7.60;99.90;;;;;;5056465;28;19928;-74
2023/03/04 14:04:20;;;;;;;;;;;7.50;99.90;;;;;;4996282;28;87756;-75
2023/03/04 14:06:51;;;;;;;;;;;8.50;99.90;;;;;;5065351;28;19931;-75
2023/03/04 14:09:21;;;;;;;;;;;10.20;99.90;;;;;;5010434;28;213004;-74
2023/03/04 14:11:49;;;;;;;;;;;10.90;99.90;;;;;;5060603;28;20311;-74
2023/03/04 14:14:17;;;;;;;;;;;10.80;99.20;;;;;;5011057;28;104914;-73
2023/03/04 14:17:10;;;;;;;;;;;10.10;99.80;;;;;;5060937;28;20329;-74
2023/03/04 14:19:43;;;;;;;;;;;9.40;99.90;;;;;;4991242;28;207448;-74
2023/03/04 14:22:28;;;;;;;;;;;9.00;99.90;;;;;;5065220;28;19932;-74
2023/03/04 14:25:04;;;;;;;;;;;8.60;99.90;;;;;;4987317;28;227476;-74
2023/03/04 14:27:32;;;;;;;;;;;8.20;99.90;;;;;;5065739;28;19931;-74
2023/03/04 14:29:58;;;;;;;;;;;8.10;99.90;;;;;;5009630;28;210042;-73
2023/03/04 14:32:25;;;;;;;;;;;7.90;99.90;;;;;;5073431;28;19931;-74